createdAt,value
2022-12-12T00:00:43.265Z,2.10
2022-12-12T00:03:09.932Z,2.40
2022-12-12T00:05:36.643Z,2.20
2022-12-12T00:08:03.344Z,2.10
2022-12-12T00:10:29.987Z,2.30
2022-12-12T00:12:56.770Z,1.77
2022-12-12T00:15:23.477Z,2.55
2022-12-12T00:17:50.050Z,2.20
2022-12-12T00:20:16.812Z,2.10
2022-12-12T00:22:43.381Z,2.05
2022-12-12T00:25:10.596Z,2.10
2022-12-12T00:27:37.927Z,2.03
2022-12-12T00:30:05.844Z,2.10
2022-12-12T00:32:33.336Z,2.28
2022-12-12T00:35:00.083Z,2.10
2022-12-12T00:37:26.793Z,2.20
2022-12-12T00:39:53.389Z,2.50
2022-12-12T00:42:19.998Z,1.98
2022-12-12T00:44:46.679Z,2.60
2022-12-12T00:47:13.256Z,2.30
2022-12-12T00:49:39.806Z,2.03
2022-12-12T00:52:06.409Z,1.95
2022-12-12T00:54:32.984Z,2.20
2022-12-12T00:56:59.564Z,1.92
2022-12-12T00:59:26.402Z,2.05
2022-12-12T01:01:52.992Z,1.80
2022-12-12T01:04:19.569Z,2.00
2022-12-12T01:06:46.145Z,2.38
2022-12-12T01:09:12.897Z,2.33
2022-12-12T01:11:39.528Z,2.20
2022-12-12T01:14:06.368Z,2.42
2022-12-12T01:16:33.638Z,2.22
2022-12-12T01:19:00.317Z,2.30
2022-12-12T01:21:27.116Z,2.25
2022-12-12T01:23:53.743Z,2.05
2022-12-12T01:26:23.722Z,1.90
2022-12-12T01:28:51.512Z,2.30
2022-12-12T01:31:18.238Z,1.80
2022-12-12T01:33:46.471Z,2.28
2022-12-12T01:36:16.621Z,2.20
2022-12-12T01:38:48.716Z,2.10
2022-12-12T01:41:16.934Z,2.10
2022-12-12T01:43:44.111Z,2.00
2022-12-12T01:46:22.545Z,1.77
2022-12-12T01:48:54.258Z,1.90
2022-12-12T01:51:23.529Z,1.80
2022-12-12T01:53:56.976Z,1.95
2022-12-12T01:56:24.624Z,2.50
2022-12-12T01:58:55.555Z,2.08
2022-12-12T02:01:23.213Z,1.92
2022-12-12T02:03:50.017Z,2.20
2022-12-12T02:06:23.127Z,1.98
2022-12-12T02:08:53.689Z,2.10
2022-12-12T02:11:20.461Z,2.10
2022-12-12T02:13:47.474Z,2.00
2022-12-12T02:16:45.008Z,2.10
2022-12-12T02:19:26.722Z,2.10
2022-12-12T02:22:02.088Z,2.00
2022-12-12T02:24:46.713Z,2.40
2022-12-12T02:27:37.713Z,2.10
2022-12-12T02:30:22.579Z,2.17
2022-12-12T02:33:07.353Z,1.85
2022-12-12T02:35:39.798Z,1.95
2022-12-12T02:38:25.273Z,2.00
2022-12-12T02:40:56.833Z,2.10
2022-12-12T02:43:34.735Z,2.30
2022-12-12T02:46:27.809Z,2.42
2022-12-12T02:49:01.531Z,2.40
2022-12-12T02:51:30.572Z,2.05
2022-12-12T02:54:04.282Z,2.10
2022-12-12T02:56:50.416Z,2.10
2022-12-12T02:59:22.862Z,2.22
2022-12-12T03:02:18.806Z,1.75
2022-12-12T03:05:20.836Z,2.20
2022-12-12T03:08:33.932Z,2.17
2022-12-12T03:11:06.245Z,1.60
2022-12-12T03:13:56.091Z,1.85
2022-12-12T03:16:36.271Z,1.92
2022-12-12T03:19:29.268Z,2.00
2022-12-12T03:22:16.064Z,2.00
2022-12-12T03:24:57.667Z,1.70
2022-12-12T03:27:34.035Z,1.80
2022-12-12T03:30:16.466Z,2.20
2022-12-12T03:32:51.745Z,1.90
2022-12-12T03:35:27.969Z,1.85
2022-12-12T03:38:10.268Z,1.98
2022-12-12T03:40:46.289Z,1.75
2022-12-12T03:43:21.664Z,2.10
2022-12-12T03:46:19.115Z,1.92
2022-12-12T03:49:02.401Z,2.00
2022-12-12T03:51:39.454Z,1.48
2022-12-12T03:54:18.024Z,2.00
2022-12-12T03:56:56.815Z,1.75
2022-12-12T03:59:38.296Z,1.55
2022-12-12T04:02:16.834Z,1.45
2022-12-12T04:05:21.404Z,2.13
2022-12-12T04:08:15.352Z,1.75
2022-12-12T04:11:16.086Z,1.80
2022-12-12T04:14:10.492Z,1.70
2022-12-12T04:16:42.777Z,1.60
2022-12-12T04:19:39.378Z,1.67
2022-12-12T04:22:27.528Z,1.38
2022-12-12T04:25:09.498Z,1.60
2022-12-12T04:27:48.500Z,1.38
2022-12-12T04:30:16.250Z,1.70
2022-12-12T04:32:44.469Z,1.50
2022-12-12T04:35:22.870Z,1.35
2022-12-12T04:37:58.654Z,1.10
2022-12-12T04:40:29.823Z,1.40
2022-12-12T04:43:01.466Z,1.70
2022-12-12T04:45:34.322Z,1.40
2022-12-12T04:48:03.976Z,1.60
2022-12-12T04:50:32.807Z,1.40
2022-12-12T04:53:02.298Z,1.50
2022-12-12T04:55:35.981Z,1.83
2022-12-12T04:58:04.530Z,1.40
2022-12-12T05:00:39.332Z,1.38
2022-12-12T05:03:20.199Z,1.30
2022-12-12T05:06:02.085Z,1.35
2022-12-12T05:08:44.368Z,1.48
2022-12-12T05:11:12.081Z,1.47
2022-12-12T05:13:41.015Z,1.33
2022-12-12T05:16:32.506Z,1.27
2022-12-12T05:19:00.220Z,1.40
2022-12-12T05:21:27.051Z,1.50
2022-12-12T05:23:53.718Z,1.80
2022-12-12T05:26:25.687Z,1.48
2022-12-12T05:28:52.801Z,1.90
2022-12-12T05:31:20.114Z,1.70
2022-12-12T05:33:47.083Z,1.85
2022-12-12T05:36:14.881Z,1.90
2022-12-12T05:38:41.966Z,1.88
2022-12-12T05:41:09.433Z,1.88
2022-12-12T05:43:36.149Z,1.80
2022-12-12T05:46:03.511Z,1.65
2022-12-12T05:48:30.317Z,1.70
2022-12-12T05:50:57.443Z,1.75
2022-12-12T05:53:24.007Z,2.10
2022-12-12T05:55:54.119Z,1.55
2022-12-12T05:58:20.924Z,1.70
2022-12-12T06:00:49.034Z,1.80
2022-12-12T06:03:16.397Z,1.60
2022-12-12T06:05:43.385Z,1.88
2022-12-12T06:08:10.009Z,1.80
2022-12-12T06:10:36.914Z,2.00
2022-12-12T06:13:04.019Z,1.50
2022-12-12T06:15:30.929Z,1.70
2022-12-12T06:17:58.625Z,1.73
2022-12-12T06:20:25.869Z,1.65
2022-12-12T06:22:53.993Z,2.00
2022-12-12T06:25:20.966Z,1.63
2022-12-12T06:27:47.603Z,1.77
2022-12-12T06:30:14.591Z,1.67
2022-12-12T06:32:41.548Z,1.90
2022-12-12T06:35:09.578Z,1.80
2022-12-12T06:37:36.248Z,1.77
2022-12-12T06:40:03.484Z,2.15
2022-12-12T06:42:30.082Z,1.80
2022-12-12T06:44:56.640Z,1.98
2022-12-12T06:47:23.220Z,1.88
2022-12-12T06:49:49.793Z,1.92
2022-12-12T06:52:16.359Z,1.58
2022-12-12T06:54:42.923Z,1.83
2022-12-12T06:57:09.485Z,1.70
2022-12-12T06:59:36.069Z,1.85
2022-12-12T07:02:02.793Z,1.77
2022-12-12T07:04:29.517Z,1.60
2022-12-12T07:06:56.094Z,2.05
2022-12-12T07:09:22.715Z,1.83
2022-12-12T07:11:49.286Z,1.65
2022-12-12T07:14:15.905Z,1.65
2022-12-12T07:16:42.493Z,1.95
2022-12-12T07:19:09.928Z,1.48
2022-12-12T07:21:36.577Z,1.65
2022-12-12T07:24:03.225Z,1.45
2022-12-12T07:26:29.758Z,1.85
2022-12-12T07:28:56.373Z,1.90
2022-12-12T07:31:26.107Z,1.58
2022-12-12T07:33:54.348Z,1.88
2022-12-12T07:36:21.057Z,1.50
2022-12-12T07:38:47.709Z,1.50
2022-12-12T07:41:16.882Z,1.55
2022-12-12T07:43:46.082Z,1.70
2022-12-12T07:46:20.438Z,1.35
2022-12-12T07:48:47.733Z,1.40
2022-12-12T07:51:15.315Z,1.30
2022-12-12T07:53:42.667Z,1.73
2022-12-12T07:56:11.765Z,1.35
2022-12-12T07:58:38.986Z,1.40
2022-12-12T08:01:14.996Z,1.48
2022-12-12T08:03:43.781Z,1.55
2022-12-12T08:06:10.701Z,1.25
2022-12-12T08:08:37.373Z,1.20
2022-12-12T08:11:09.341Z,1.33
2022-12-12T08:13:38.091Z,1.45
2022-12-12T08:16:06.788Z,1.15
2022-12-12T08:18:33.874Z,1.27
2022-12-12T08:21:00.578Z,1.00
2022-12-12T08:23:27.222Z,1.40
2022-12-12T08:25:53.815Z,1.23
2022-12-12T08:28:20.387Z,1.00
2022-12-12T08:30:51.224Z,1.17
2022-12-12T08:33:18.058Z,0.80
2022-12-12T08:35:44.856Z,1.10
2022-12-12T08:38:11.639Z,1.00
2022-12-12T08:40:38.270Z,1.05
2022-12-12T08:43:05.034Z,1.20
2022-12-12T08:45:31.763Z,1.35
2022-12-12T08:47:58.748Z,1.05
2022-12-12T08:50:26.292Z,1.13
2022-12-12T08:52:52.935Z,0.98
2022-12-12T08:55:19.500Z,1.00
2022-12-12T08:57:46.110Z,1.00
2022-12-12T09:00:13.181Z,0.80
2022-12-12T09:02:39.889Z,1.00
2022-12-12T09:05:06.806Z,0.90
2022-12-12T09:07:33.465Z,1.00
2022-12-12T09:10:00.114Z,0.80
2022-12-12T09:12:26.690Z,0.85
2022-12-12T09:14:53.275Z,0.80
2022-12-12T09:17:19.910Z,1.00
2022-12-12T09:19:46.668Z,0.82
2022-12-12T09:22:13.266Z,0.70
2022-12-12T09:24:39.909Z,0.70
2022-12-12T09:27:08.198Z,0.90
2022-12-12T09:29:34.756Z,0.90
2022-12-12T09:32:06.584Z,0.80
2022-12-12T09:34:34.251Z,0.80
2022-12-12T09:37:00.939Z,0.88
2022-12-12T09:39:27.656Z,0.80
2022-12-12T09:41:54.677Z,0.70
2022-12-12T09:44:22.785Z,0.73
2022-12-12T09:46:53.870Z,0.60
2022-12-12T09:49:43.496Z,0.88
2022-12-12T09:52:16.809Z,0.60
2022-12-12T09:54:43.819Z,0.63
2022-12-12T09:57:28.997Z,0.73
2022-12-12T10:00:05.583Z,0.60
2022-12-12T10:02:34.914Z,0.65
2022-12-12T10:05:09.269Z,0.75
2022-12-12T10:07:46.144Z,0.70
2022-12-12T10:10:24.547Z,0.70
2022-12-12T10:12:52.421Z,0.60
2022-12-12T10:15:27.392Z,0.52
2022-12-12T10:17:56.862Z,0.60
2022-12-12T10:20:27.959Z,0.68
2022-12-12T10:23:32.707Z,0.50
2022-12-12T10:26:14.582Z,0.57
2022-12-12T10:28:41.140Z,0.52
2022-12-12T10:31:21.965Z,0.70
2022-12-12T10:34:16.559Z,0.50
2022-12-12T10:36:58.755Z,0.50
2022-12-12T10:40:10.845Z,0.50
2022-12-12T10:43:01.674Z,0.45
2022-12-12T10:45:51.711Z,0.60
2022-12-12T10:48:18.418Z,0.70
2022-12-12T10:50:50.240Z,0.70
2022-12-12T10:53:17.752Z,0.52
2022-12-12T10:56:18.824Z,0.60
2022-12-12T10:59:01.932Z,0.70
2022-12-12T11:02:07.667Z,0.50
2022-12-12T11:04:20.865Z,0.50
2022-12-12T11:06:50.818Z,0.57
2022-12-12T11:09:27.968Z,0.52
2022-12-12T11:12:09.669Z,0.45
2022-12-12T11:14:40.203Z,0.50
2022-12-12T11:17:20.917Z,0.80
2022-12-12T11:19:47.561Z,0.63
2022-12-12T11:22:14.895Z,0.60
2022-12-12T11:24:46.660Z,0.60
2022-12-12T11:27:25.406Z,0.70
2022-12-12T11:29:54.583Z,0.50
2022-12-12T11:32:26.007Z,0.50
2022-12-12T11:35:05.235Z,0.68
2022-12-12T11:37:46.316Z,0.50
2022-12-12T11:40:28.644Z,0.47
2022-12-12T11:43:25.254Z,0.75
2022-12-12T11:46:19.212Z,0.80
2022-12-12T11:48:48.690Z,0.90
2022-12-12T11:51:29.922Z,0.75
2022-12-12T11:53:56.475Z,0.50
2022-12-12T11:56:37.950Z,0.50
2022-12-12T11:59:22.090Z,0.50
2022-12-12T12:02:09.102Z,0.60
2022-12-12T12:05:14.552Z,0.50
2022-12-12T12:08:14.288Z,0.70
2022-12-12T12:10:52.790Z,0.63
2022-12-12T12:13:41.313Z,0.50
2022-12-12T12:16:40.140Z,0.63
2022-12-12T12:19:22.178Z,0.40
2022-12-12T12:22:16.494Z,0.50
2022-12-12T12:24:59.485Z,0.45
2022-12-12T12:28:04.003Z,0.57
2022-12-12T12:30:59.436Z,0.50
2022-12-12T12:34:01.466Z,0.50
2022-12-12T12:36:49.708Z,0.70
2022-12-12T12:39:45.551Z,0.40
2022-12-12T12:42:30.410Z,0.45
2022-12-12T12:45:18.897Z,0.50
2022-12-12T12:47:57.660Z,0.50
2022-12-12T12:50:32.559Z,0.50
2022-12-12T12:53:14.381Z,0.40
2022-12-12T12:55:45.869Z,0.70
2022-12-12T12:58:20.591Z,0.50
2022-12-12T13:00:55.515Z,0.40
2022-12-12T13:03:28.678Z,0.40
2022-12-12T13:05:59.681Z,0.60
2022-12-12T13:08:56.894Z,0.57
2022-12-12T13:11:39.830Z,0.40
2022-12-12T13:14:19.182Z,0.32
2022-12-12T13:16:46.945Z,0.57
2022-12-12T13:19:38.139Z,0.50
2022-12-12T13:22:13.964Z,0.60
2022-12-12T13:25:09.091Z,0.45
2022-12-12T13:27:45.879Z,0.60
2022-12-12T13:30:23.761Z,0.70
2022-12-12T13:33:16.337Z,0.40
2022-12-12T13:35:54.477Z,0.40
2022-12-12T13:38:28.474Z,0.40
2022-12-12T13:41:04.493Z,0.43
2022-12-12T13:43:45.114Z,0.50
2022-12-12T13:46:24.271Z,0.40
2022-12-12T13:49:10.561Z,0.40
2022-12-12T13:51:42.907Z,0.40
2022-12-12T13:54:13.749Z,0.40
2022-12-12T13:56:43.812Z,0.55
2022-12-12T13:59:22.243Z,0.60
2022-12-12T14:02:32.951Z,0.40
2022-12-12T14:05:23.377Z,0.70
2022-12-12T14:07:58.790Z,0.60
2022-12-12T14:10:30.895Z,0.40
2022-12-12T14:13:15.024Z,0.57
2022-12-12T14:15:43.451Z,0.50
2022-12-12T14:18:27.166Z,0.50
2022-12-12T14:21:08.403Z,0.40
2022-12-12T14:23:43.440Z,0.45
2022-12-12T14:26:28.218Z,0.57
2022-12-12T14:29:16.567Z,0.40
2022-12-12T14:32:01.359Z,0.40
2022-12-12T14:34:40.016Z,0.50
2022-12-12T14:37:15.739Z,0.98
2022-12-12T14:40:11.787Z,0.60
2022-12-12T14:43:15.572Z,0.70
2022-12-12T14:45:29.769Z,0.47
2022-12-12T14:48:09.262Z,0.40
2022-12-12T14:50:37.312Z,0.45
2022-12-12T14:53:14.739Z,0.50
2022-12-12T14:56:03.622Z,0.43
2022-12-12T14:58:34.201Z,0.40
2022-12-12T15:01:03.796Z,0.50
2022-12-12T15:03:39.182Z,0.40
2022-12-12T15:06:23.863Z,0.40
2022-12-12T15:08:52.258Z,0.50
2022-12-12T15:11:23.649Z,0.40
2022-12-12T15:13:55.981Z,0.40
2022-12-12T15:16:32.329Z,0.30
2022-12-12T15:19:01.349Z,0.40
2022-12-12T15:21:32.104Z,0.40
2022-12-12T15:23:59.262Z,0.50
2022-12-12T15:26:28.011Z,0.40
2022-12-12T15:28:54.679Z,0.40
2022-12-12T15:31:21.472Z,0.40
2022-12-12T15:33:49.382Z,0.40
2022-12-12T15:36:25.403Z,0.40
2022-12-12T15:39:16.217Z,0.40
2022-12-12T15:41:44.844Z,0.38
2022-12-12T15:44:17.996Z,0.40
2022-12-12T15:46:47.206Z,0.40
2022-12-12T15:49:49.284Z,0.40
2022-12-12T15:52:24.958Z,0.50
2022-12-12T15:54:55.694Z,0.50
2022-12-12T15:57:24.807Z,0.40
2022-12-12T16:00:01.863Z,0.40
2022-12-12T16:02:33.439Z,0.40
2022-12-12T16:05:19.419Z,0.50
2022-12-12T16:07:49.855Z,0.40
2022-12-12T16:10:24.429Z,0.50
2022-12-12T16:13:03.845Z,0.32
2022-12-12T16:15:32.964Z,0.40
2022-12-12T16:18:15.144Z,0.47
2022-12-12T16:20:56.601Z,0.40
2022-12-12T16:23:28.087Z,0.43
2022-12-12T16:25:55.644Z,0.40
2022-12-12T16:28:25.906Z,0.40
2022-12-12T16:31:01.299Z,0.50
2022-12-12T16:33:35.300Z,0.50
2022-12-12T16:36:05.009Z,0.55
2022-12-12T16:38:32.982Z,0.55
2022-12-12T16:41:03.116Z,0.60
2022-12-12T16:43:29.775Z,0.38
2022-12-12T16:45:57.812Z,0.50
2022-12-12T16:48:27.753Z,0.50
2022-12-12T16:51:00.912Z,0.57
2022-12-12T16:53:31.095Z,0.45
2022-12-12T16:55:57.740Z,0.60
2022-12-12T16:58:24.524Z,0.40
2022-12-12T17:00:55.682Z,0.55
2022-12-12T17:03:23.898Z,0.45
2022-12-12T17:05:51.665Z,0.55
2022-12-12T17:08:18.631Z,0.50
2022-12-12T17:10:47.129Z,0.47
2022-12-12T17:13:17.204Z,0.50
2022-12-12T17:15:44.101Z,0.50
2022-12-12T17:18:10.965Z,0.55
2022-12-12T17:20:38.214Z,0.50
2022-12-12T17:23:29.729Z,0.50
2022-12-12T17:26:02.941Z,0.60
2022-12-12T17:28:30.500Z,0.68
2022-12-12T17:30:57.124Z,0.50
2022-12-12T17:33:23.786Z,0.68
2022-12-12T17:36:02.018Z,0.50
2022-12-12T17:38:30.403Z,0.60
2022-12-12T17:40:58.573Z,0.60
2022-12-12T17:43:25.756Z,0.47
2022-12-12T17:46:04.685Z,0.40
2022-12-12T17:48:34.160Z,0.70
2022-12-12T17:51:05.542Z,0.50
2022-12-12T17:53:38.377Z,0.60
2022-12-12T17:56:15.138Z,0.70
2022-12-12T17:58:44.218Z,0.50
2022-12-12T18:01:20.807Z,0.60
2022-12-12T18:03:48.354Z,0.50
2022-12-12T18:06:16.316Z,0.52
2022-12-12T18:08:43.669Z,0.60
2022-12-12T18:11:24.559Z,0.75
2022-12-12T18:13:53.828Z,0.90
2022-12-12T18:16:21.607Z,1.00
2022-12-12T18:18:50.506Z,0.80
2022-12-12T18:21:43.449Z,0.70
2022-12-12T18:24:07.126Z,0.98
2022-12-12T18:26:33.685Z,0.70
2022-12-12T18:29:02.589Z,0.98
2022-12-12T18:31:30.259Z,0.75
2022-12-12T18:33:57.243Z,1.30
2022-12-12T18:36:27.348Z,0.90
2022-12-12T18:38:56.205Z,0.82
2022-12-12T18:41:23.418Z,1.20
2022-12-12T18:43:50.133Z,1.08
2022-12-12T18:46:19.296Z,0.98
2022-12-12T18:48:47.669Z,1.00
2022-12-12T18:51:19.866Z,0.85
2022-12-12T18:53:46.847Z,0.70
2022-12-12T18:56:15.951Z,0.98
2022-12-12T18:58:42.967Z,0.82
2022-12-12T19:01:13.313Z,0.80
2022-12-12T19:03:41.935Z,1.00
2022-12-12T19:06:11.497Z,0.90
2022-12-12T19:08:38.588Z,1.05
2022-12-12T19:11:06.552Z,0.80
2022-12-12T19:13:33.421Z,1.02
2022-12-12T19:16:05.346Z,1.15
2022-12-12T19:18:32.219Z,0.90
2022-12-12T19:21:05.097Z,1.00
2022-12-12T19:23:31.877Z,0.80
2022-12-12T19:26:07.182Z,0.77
2022-12-12T19:28:34.839Z,0.95
2022-12-12T19:31:10.220Z,1.08
2022-12-12T19:33:37.333Z,1.20
2022-12-12T19:36:21.305Z,1.10
2022-12-12T19:38:49.209Z,0.90
2022-12-12T19:41:18.225Z,1.10
2022-12-12T19:43:46.353Z,1.20
2022-12-12T19:46:16.005Z,1.10
2022-12-12T19:48:43.416Z,1.00
2022-12-12T19:51:19.061Z,1.10
2022-12-12T19:53:49.468Z,0.98
2022-12-12T19:56:19.673Z,1.15
2022-12-12T19:58:47.213Z,1.05
2022-12-12T20:01:17.968Z,1.20
2022-12-12T20:03:52.419Z,1.30
2022-12-12T20:06:19.624Z,0.98
2022-12-12T20:08:46.784Z,1.20
2022-12-12T20:11:21.044Z,1.10
2022-12-12T20:13:49.789Z,1.02
2022-12-12T20:16:18.747Z,1.20
2022-12-12T20:18:47.345Z,1.10
2022-12-12T20:21:36.194Z,1.10
2022-12-12T20:24:00.985Z,0.98
2022-12-12T20:26:29.819Z,1.13
2022-12-12T20:28:59.919Z,1.10
2022-12-12T20:31:33.210Z,1.17
2022-12-12T20:34:00.802Z,1.08
2022-12-12T20:36:29.997Z,1.15
2022-12-12T20:38:58.400Z,1.20
2022-12-12T20:41:30.301Z,1.05
2022-12-12T20:43:58.670Z,1.10
2022-12-12T20:46:29.681Z,1.25
2022-12-12T20:48:57.537Z,1.00
2022-12-12T20:51:53.958Z,1.08
2022-12-12T20:54:17.249Z,1.10
2022-12-12T20:56:46.435Z,1.23
2022-12-12T20:59:14.599Z,1.10
2022-12-12T21:01:41.560Z,1.30
2022-12-12T21:04:09.257Z,1.30
2022-12-12T21:06:38.512Z,1.10
2022-12-12T21:09:08.638Z,1.08
2022-12-12T21:11:35.822Z,1.10
2022-12-12T21:14:02.435Z,1.13
2022-12-12T21:16:32.374Z,1.20
2022-12-12T21:19:03.196Z,1.00
2022-12-12T21:21:30.115Z,0.90
2022-12-12T21:23:57.502Z,1.17
2022-12-12T21:26:29.179Z,1.10
2022-12-12T21:28:56.859Z,1.08
2022-12-12T21:31:26.280Z,1.23
2022-12-12T21:33:53.464Z,1.20
2022-12-12T21:36:22.470Z,1.10
2022-12-12T21:38:50.474Z,1.40
2022-12-12T21:41:19.979Z,1.02
2022-12-12T21:43:47.142Z,1.00
2022-12-12T21:46:16.696Z,1.10
2022-12-12T21:48:43.382Z,1.10
2022-12-12T21:51:14.763Z,1.10
2022-12-12T21:53:41.870Z,1.23
2022-12-12T21:56:14.376Z,1.30
2022-12-12T21:58:42.186Z,1.20
2022-12-12T22:01:10.185Z,1.02
2022-12-12T22:03:36.958Z,1.35
2022-12-12T22:06:21.676Z,1.10
2022-12-12T22:08:48.872Z,0.85
2022-12-12T22:11:23.660Z,1.10
2022-12-12T22:14:05.280Z,0.90
2022-12-12T22:16:35.434Z,1.30
2022-12-12T22:19:07.451Z,0.95
2022-12-12T22:21:34.958Z,0.98
2022-12-12T22:24:02.209Z,0.90
2022-12-12T22:26:38.342Z,1.00
2022-12-12T22:29:07.709Z,1.00
2022-12-12T22:31:37.550Z,0.82
2022-12-12T22:34:06.673Z,1.10
2022-12-12T22:36:35.532Z,1.00
2022-12-12T22:39:02.948Z,0.90
2022-12-12T22:41:30.178Z,0.90
2022-12-12T22:43:59.161Z,1.17
2022-12-12T22:46:26.885Z,1.00
2022-12-12T22:48:56.628Z,0.83
2022-12-12T22:51:29.119Z,1.05
2022-12-12T22:53:57.192Z,0.82
2022-12-12T22:56:23.820Z,1.10
2022-12-12T22:58:50.469Z,0.90
2022-12-12T23:01:20.167Z,0.90
2022-12-12T23:03:47.057Z,1.00
2022-12-12T23:06:21.911Z,0.90
2022-12-12T23:08:54.095Z,1.00
2022-12-12T23:11:23.137Z,1.10
2022-12-12T23:13:54.284Z,1.30
2022-12-12T23:16:22.342Z,1.00
2022-12-12T23:18:49.071Z,1.20
2022-12-12T23:21:18.323Z,1.00
2022-12-12T23:23:46.077Z,1.42
2022-12-12T23:26:16.072Z,1.30
2022-12-12T23:28:43.428Z,1.25
2022-12-12T23:31:13.396Z,1.40
2022-12-12T23:33:40.598Z,1.17
2022-12-12T23:36:09.172Z,1.30
2022-12-12T23:38:36.125Z,1.20
2022-12-12T23:41:10.731Z,1.15
2022-12-12T23:43:37.683Z,1.23
2022-12-12T23:46:06.792Z,0.98
2022-12-12T23:48:34.265Z,1.15
2022-12-12T23:51:01.378Z,1.10
2022-12-12T23:53:31.577Z,1.00
2022-12-12T23:56:04.753Z,1.00
2022-12-12T23:58:31.320Z,1.08
